Terminal Aerodrome Forecast
Issued by NWS

Home | Current Version | Previous Version | Text Only | Print | Product List | Glossary On
Versions: 1 2 3 4 5 6 7 8 9 10 11 12 13 14 15 16 17 18 19 20 21 22 23 24 25 26 27 28 29 30 31 32 33 34 35 36
000
FTUS45 KGJT 272329
TAFEGE
TAF
KEGE 272329Z 2800/2824 00000KT P6SM VCSH FEW080 BKN120
     FM280300 09005KT P6SM FEW070 BKN140
     FM280600 VRB03KT P6SM SCT090 SCT150
     FM282100 01002KT P6SM VCSH SCT080 BKN120
      AMD LTD TO CLD VIS AND WIND 2802/2813=

USA.gov is the U.S. government's official web portal to all federal, state and local government web resources and services.